SBI3276 UASK-UUDD
Flight info
| Callsign | SBI3276 |
|---|---|
| Flight time | N/A |
| Altitude | 36000 |
| Route | LIRNA1C LIRNA L994 TITUR N985 ORTIM L158 APTAR T787 URAGO URAGO3L |
| Aircraft | A320/M-SDE3FGHIRWY/LB1 |
Departure
| Time | N/A |
|---|---|
| Airport | Oskemen International Airport (UASK) |
Arrival
| Time | 2026-05-06 15:22 |
|---|---|
| Airport | Domodedovo International Airport (UUDD) |
| Time | Latitude | Longitude | Altitude | Speed | Heading |
|---|---|---|---|---|---|
| 2026-05-06 15:02 | 55.63548 | 38.49066 | 18283 ft | 332 kts | 274° |
| 2026-05-06 15:02 | 55.63744 | 38.45008 | 18097 ft | 327 kts | 274° |
| 2026-05-06 15:02 | 55.63935 | 38.41064 | 17951 ft | 316 kts | 274° |
| 2026-05-06 15:02 | 55.64117 | 38.37250 | 17848 ft | 306 kts | 274° |
| 2026-05-06 15:03 | 55.64298 | 38.33507 | 17867 ft | 305 kts | 274° |
| 2026-05-06 15:03 | 55.64480 | 38.29768 | 17865 ft | 305 kts | 274° |
| 2026-05-06 15:03 | 55.64663 | 38.26033 | 17865 ft | 304 kts | 274° |
| 2026-05-06 15:03 | 55.64845 | 38.22301 | 17866 ft | 304 kts | 274° |
| 2026-05-06 15:04 | 55.65001 | 38.18558 | 17787 ft | 305 kts | 272° |
| 2026-05-06 15:04 | 55.65059 | 38.14824 | 17514 ft | 302 kts | 270° |
| 2026-05-06 15:04 | 55.65059 | 38.11114 | 17276 ft | 301 kts | 269° |
| 2026-05-06 15:04 | 55.65037 | 38.07421 | 17041 ft | 299 kts | 269° |
| 2026-05-06 15:05 | 55.65014 | 38.03788 | 16816 ft | 298 kts | 269° |
| 2026-05-06 15:05 | 55.64997 | 38.00117 | 16582 ft | 297 kts | 269° |
| 2026-05-06 15:05 | 55.64988 | 37.96458 | 16352 ft | 296 kts | 269° |
| 2026-05-06 15:05 | 55.64823 | 37.92844 | 16126 ft | 294 kts | 255° |
| 2026-05-06 15:06 | 55.63879 | 37.89653 | 15899 ft | 297 kts | 231° |
| 2026-05-06 15:06 | 55.62208 | 37.87485 | 15534 ft | 306 kts | 205° |
| 2026-05-06 15:06 | 55.60079 | 37.86869 | 15101 ft | 316 kts | 184° |
| 2026-05-06 15:06 | 55.57880 | 37.86933 | 14675 ft | 317 kts | 182° |
| 2026-05-06 15:07 | 55.55686 | 37.87477 | 14325 ft | 322 kts | 168° |
| 2026-05-06 15:07 | 55.53613 | 37.89033 | 14018 ft | 326 kts | 152° |
| 2026-05-06 15:07 | 55.51769 | 37.91371 | 13692 ft | 327 kts | 146° |
| 2026-05-06 15:07 | 55.49958 | 37.93778 | 13292 ft | 326 kts | 147° |
| 2026-05-06 15:08 | 55.48170 | 37.96131 | 12935 ft | 324 kts | 147° |
| 2026-05-06 15:08 | 55.46363 | 37.98480 | 12564 ft | 322 kts | 147° |
| 2026-05-06 15:08 | 55.44562 | 38.00801 | 12233 ft | 319 kts | 147° |
| 2026-05-06 15:08 | 55.42769 | 38.03102 | 11846 ft | 318 kts | 147° |
| 2026-05-06 15:09 | 55.40988 | 38.05389 | 11498 ft | 315 kts | 147° |
| 2026-05-06 15:09 | 55.39223 | 38.07654 | 11172 ft | 312 kts | 147° |
| 2026-05-06 15:09 | 55.37476 | 38.09899 | 10872 ft | 309 kts | 147° |
| 2026-05-06 15:09 | 55.35750 | 38.12123 | 10576 ft | 306 kts | 147° |
| 2026-05-06 15:10 | 55.34056 | 38.14303 | 10289 ft | 305 kts | 147° |
| 2026-05-06 15:10 | 55.32352 | 38.16490 | 10055 ft | 303 kts | 147° |
| 2026-05-06 15:10 | 55.30652 | 38.18664 | 9809 ft | 302 kts | 147° |
| 2026-05-06 15:10 | 55.28955 | 38.20832 | 9508 ft | 301 kts | 147° |
| 2026-05-06 15:11 | 55.27267 | 38.22989 | 9215 ft | 299 kts | 147° |
| 2026-05-06 15:11 | 55.25593 | 38.25130 | 8924 ft | 297 kts | 147° |
| 2026-05-06 15:11 | 55.23893 | 38.27240 | 8406 ft | 300 kts | 148° |
| 2026-05-06 15:11 | 55.22193 | 38.29289 | 8200 ft | 291 kts | 148° |
| 2026-05-06 15:12 | 55.20510 | 38.31103 | 8060 ft | 277 kts | 160° |
| 2026-05-06 15:12 | 55.18722 | 38.31961 | 7855 ft | 263 kts | 179° |
| 2026-05-06 15:12 | 55.16928 | 38.31833 | 7621 ft | 256 kts | 195° |
| 2026-05-06 15:12 | 55.15232 | 38.30951 | 7320 ft | 254 kts | 201° |
| 2026-05-06 15:13 | 55.13552 | 38.29988 | 7014 ft | 254 kts | 201° |
| 2026-05-06 15:13 | 55.11953 | 38.28753 | 6701 ft | 248 kts | 220° |
| 2026-05-06 15:13 | 55.10881 | 38.26474 | 6399 ft | 243 kts | 249° |
| 2026-05-06 15:13 | 55.10586 | 38.23616 | 6114 ft | 240 kts | 276° |
| 2026-05-06 15:14 | 55.10959 | 38.20808 | 5820 ft | 241 kts | 285° |
| 2026-05-06 15:14 | 55.11405 | 38.17985 | 5516 ft | 241 kts | 285° |
| 2026-05-06 15:14 | 55.11915 | 38.15241 | 5286 ft | 234 kts | 297° |
| 2026-05-06 15:14 | 55.12923 | 38.13049 | 4964 ft | 233 kts | 322° |
| 2026-05-06 15:15 | 55.13838 | 38.12117 | 4855 ft | 228 kts | 337° |
| 2026-05-06 15:15 | 55.15867 | 38.11319 | 4644 ft | 219 kts | 348° |
| 2026-05-06 15:15 | 55.17346 | 38.10855 | 4487 ft | 213 kts | 348° |
| 2026-05-06 15:15 | 55.18794 | 38.10399 | 4337 ft | 208 kts | 348° |
| 2026-05-06 15:16 | 55.20189 | 38.09960 | 4252 ft | 198 kts | 348° |
| 2026-05-06 15:16 | 55.21517 | 38.09542 | 4169 ft | 189 kts | 348° |
| 2026-05-06 15:16 | 55.22766 | 38.09148 | 4083 ft | 180 kts | 347° |
| 2026-05-06 15:16 | 55.23971 | 38.08672 | 4031 ft | 170 kts | 333° |
| 2026-05-06 15:17 | 55.24953 | 38.07660 | 3883 ft | 164 kts | 326° |
| 2026-05-06 15:17 | 55.25911 | 38.06568 | 3687 ft | 161 kts | 325° |
| 2026-05-06 15:17 | 55.26819 | 38.05505 | 3496 ft | 158 kts | 325° |
| 2026-05-06 15:17 | 55.27723 | 38.04436 | 3289 ft | 155 kts | 324° |
| 2026-05-06 15:18 | 55.28596 | 38.03396 | 3102 ft | 149 kts | 325° |
| 2026-05-06 15:18 | 55.29436 | 38.02395 | 2930 ft | 145 kts | 325° |
| 2026-05-06 15:18 | 55.30262 | 38.01411 | 2730 ft | 142 kts | 324° |
| 2026-05-06 15:18 | 55.31080 | 38.00434 | 2540 ft | 141 kts | 324° |
| 2026-05-06 15:19 | 55.31893 | 37.99462 | 2362 ft | 141 kts | 324° |
| 2026-05-06 15:19 | 55.32699 | 37.98500 | 2198 ft | 140 kts | 325° |
| 2026-05-06 15:19 | 55.33478 | 37.97561 | 2032 ft | 135 kts | 324° |
| 2026-05-06 15:19 | 55.34265 | 37.96626 | 1808 ft | 137 kts | 325° |
| 2026-05-06 15:20 | 55.35053 | 37.95684 | 1622 ft | 138 kts | 325° |
| 2026-05-06 15:20 | 55.35841 | 37.94739 | 1418 ft | 136 kts | 326° |
| 2026-05-06 15:20 | 55.36620 | 37.93808 | 1257 ft | 140 kts | 325° |
| 2026-05-06 15:20 | 55.37443 | 37.92822 | 1051 ft | 143 kts | 324° |
| 2026-05-06 15:21 | 55.38271 | 37.91825 | 828 ft | 145 kts | 324° |
| 2026-05-06 15:21 | 55.39107 | 37.90832 | 674 ft | 144 kts | 322° |
| 2026-05-06 15:21 | 55.39922 | 37.89854 | 555 ft | 138 kts | 321° |
| 2026-05-06 15:21 | 55.40582 | 37.89047 | 568 ft | 90 kts | 327° |
| 2026-05-06 15:22 | 55.40957 | 37.88591 | 577 ft | 41 kts | 325° |
| 2026-05-06 15:22 | 55.41116 | 37.88414 | 579 ft | 24 kts | 338° |
| 2026-05-06 15:22 | 55.41275 | 37.88357 | 582 ft | 17 kts | 357° |
| 2026-05-06 15:22 | 55.41367 | 37.88358 | 582 ft | 12 kts | 26° |
| 2026-05-06 15:23 | 55.41363 | 37.88476 | 580 ft | 11 kts | 143° |
| 2026-05-06 15:23 | 55.41301 | 37.88548 | 579 ft | 10 kts | 146° |
| 2026-05-06 15:23 | 55.41246 | 37.88614 | 578 ft | 9 kts | 146° |
| 2026-05-06 15:23 | 55.41195 | 37.88676 | 578 ft | 9 kts | 145° |
| 2026-05-06 15:24 | 55.41148 | 37.88733 | 577 ft | 8 kts | 145° |
| 2026-05-06 15:24 | 55.41105 | 37.88785 | 577 ft | 7 kts | 145° |
| 2026-05-06 15:24 | 55.41066 | 37.88831 | 579 ft | 6 kts | 146° |
| 2026-05-06 15:24 | 55.41030 | 37.88874 | 576 ft | 6 kts | 146° |
| 2026-05-06 15:25 | 55.40998 | 37.88913 | 578 ft | 5 kts | 145° |
| 2026-05-06 15:25 | 55.40968 | 37.88949 | 577 ft | 5 kts | 145° |
| 2026-05-06 15:25 | 55.40935 | 37.88990 | 578 ft | 6 kts | 145° |
| 2026-05-06 15:25 | 55.40898 | 37.89034 | 576 ft | 7 kts | 146° |
| 2026-05-06 15:26 | 55.40853 | 37.89086 | 572 ft | 8 kts | 146° |
| 2026-05-06 15:26 | 55.40812 | 37.89139 | 575 ft | 7 kts | 137° |
| 2026-05-06 15:26 | 55.40789 | 37.89203 | 572 ft | 6 kts | 112° |
| 2026-05-06 15:26 | 55.40779 | 37.89281 | 571 ft | 7 kts | 96° |
| 2026-05-06 15:27 | 55.40785 | 37.89359 | 570 ft | 6 kts | 72° |
| 2026-05-06 15:27 | 55.40805 | 37.89425 | 571 ft | 6 kts | 54° |
| 2026-05-06 15:27 | 55.40826 | 37.89477 | 570 ft | 5 kts | 56° |
| 2026-05-06 15:27 | 55.40845 | 37.89522 | 576 ft | 5 kts | 47° |
| 2026-05-06 15:28 | 55.40869 | 37.89555 | 575 ft | 4 kts | 39° |
| 2026-05-06 15:28 | 55.40898 | 37.89623 | 569 ft | 9 kts | 56° |
| 2026-05-06 15:28 | 55.40932 | 37.89712 | 569 ft | 8 kts | 55° |
| 2026-05-06 15:28 | 55.40964 | 37.89790 | 573 ft | 7 kts | 56° |
| 2026-05-06 15:29 | 55.40993 | 37.89861 | 571 ft | 7 kts | 45° |
| 2026-05-06 15:29 | 55.41026 | 37.89858 | 572 ft | 4 kts | 328° |
| 2026-05-06 15:29 | 55.41043 | 37.89837 | 570 ft | 4 kts | 325° |
| 2026-05-06 15:29 | 55.41076 | 37.89798 | 573 ft | 6 kts | 335° |
| 2026-05-06 15:30 | 55.41105 | 37.89835 | 572 ft | 6 kts | 56° |
| 2026-05-06 15:30 | 55.41111 | 37.89851 | 571 ft | 1 kts | 56° |
| 2026-05-06 15:30 | 55.41112 | 37.89855 | 571 ft | 0 kts | 56° |